sensor_id;sensor_type;location;lat;lon;timestamp;pressure;altitude;pressure_sealevel;temperature;humidity
80397;BME280;69721;55.894;-3.052;2023-12-20T00:00:20;100432.58;;;4.07;63.83
80397;BME280;69721;55.894;-3.052;2023-12-20T00:02:44;100446.45;;;4.05;63.41
80397;BME280;69721;55.894;-3.052;2023-12-20T00:05:10;100437.42;;;4.12;62.99
80397;BME280;69721;55.894;-3.052;2023-12-20T00:07:36;100453.89;;;4.38;62.84
80397;BME280;69721;55.894;-3.052;2023-12-20T00:10:01;100455.09;;;4.37;63.26
80397;BME280;69721;55.894;-3.052;2023-12-20T00:12:27;100448.02;;;4.19;63.95
80397;BME280;69721;55.894;-3.052;2023-12-20T00:14:52;100460.33;;;4.02;63.29
80397;BME280;69721;55.894;-3.052;2023-12-20T00:17:18;100464.61;;;4.43;63.57
80397;BME280;69721;55.894;-3.052;2023-12-20T00:19:43;100470.26;;;3.59;64.17
80397;BME280;69721;55.894;-3.052;2023-12-20T00:22:09;100469.41;;;4.68;63.46
80397;BME280;69721;55.894;-3.052;2023-12-20T00:24:35;100462.66;;;4.26;64.21
80397;BME280;69721;55.894;-3.052;2023-12-20T00:27:00;100451.95;;;4.07;64.41
80397;BME280;69721;55.894;-3.052;2023-12-20T00:29:25;100453.90;;;4.12;63.80
80397;BME280;69721;55.894;-3.052;2023-12-20T00:31:52;100446.41;;;4.15;63.93
80397;BME280;69721;55.894;-3.052;2023-12-20T00:34:17;100451.30;;;4.43;63.86
80397;BME280;69721;55.894;-3.052;2023-12-20T00:36:43;100438.78;;;4.35;63.45
80397;BME280;69721;55.894;-3.052;2023-12-20T00:39:09;100438.69;;;4.60;62.73
80397;BME280;69721;55.894;-3.052;2023-12-20T00:41:33;100438.88;;;4.53;64.44
80397;BME280;69721;55.894;-3.052;2023-12-20T00:43:59;100430.80;;;4.48;64.12
80397;BME280;69721;55.894;-3.052;2023-12-20T00:46:24;100419.00;;;4.50;63.34
80397;BME280;69721;55.894;-3.052;2023-12-20T00:48:50;100434.10;;;4.52;63.17
80397;BME280;69721;55.894;-3.052;2023-12-20T00:51:15;100437.81;;;4.47;64.63
80397;BME280;69721;55.894;-3.052;2023-12-20T00:53:41;100443.00;;;4.74;62.85
80397;BME280;69721;55.894;-3.052;2023-12-20T00:56:07;100443.61;;;4.64;62.55
80397;BME280;69721;55.894;-3.052;2023-12-20T00:58:32;100447.19;;;5.59;60.42
80397;BME280;69721;55.894;-3.052;2023-12-20T01:00:58;100448.07;;;4.67;62.04
80397;BME280;69721;55.894;-3.052;2023-12-20T01:03:23;100466.11;;;4.57;62.94
80397;BME280;69721;55.894;-3.052;2023-12-20T01:05:49;100460.78;;;5.01;62.49
80397;BME280;69721;55.894;-3.052;2023-12-20T01:08:14;100458.93;;;5.17;61.87
80397;BME280;69721;55.894;-3.052;2023-12-20T01:10:40;100464.57;;;4.50;64.41
80397;BME280;69721;55.894;-3.052;2023-12-20T01:13:05;100474.55;;;5.01;62.61
80397;BME280;69721;55.894;-3.052;2023-12-20T01:15:31;100478.35;;;4.10;65.15
80397;BME280;69721;55.894;-3.052;2023-12-20T01:17:57;100471.60;;;4.99;63.64
80397;BME280;69721;55.894;-3.052;2023-12-20T01:20:22;100468.58;;;5.28;62.73
80397;BME280;69721;55.894;-3.052;2023-12-20T01:22:47;100483.51;;;5.23;63.30
80397;BME280;69721;55.894;-3.052;2023-12-20T01:25:13;100487.86;;;4.88;64.39
80397;BME280;69721;55.894;-3.052;2023-12-20T01:27:39;100481.49;;;4.16;65.52
80397;BME280;69721;55.894;-3.052;2023-12-20T01:30:06;100466.84;;;4.58;65.61
80397;BME280;69721;55.894;-3.052;2023-12-20T01:32:30;100478.67;;;4.48;65.04
80397;BME280;69721;55.894;-3.052;2023-12-20T01:34:56;100474.34;;;4.66;63.88
80397;BME280;69721;55.894;-3.052;2023-12-20T01:37:21;100478.91;;;5.36;62.54
80397;BME280;69721;55.894;-3.052;2023-12-20T01:39:47;100482.28;;;5.13;62.90
80397;BME280;69721;55.894;-3.052;2023-12-20T01:42:13;100478.20;;;5.10;62.69
80397;BME280;69721;55.894;-3.052;2023-12-20T01:44:38;100481.27;;;5.33;62.33
80397;BME280;69721;55.894;-3.052;2023-12-20T01:47:04;100478.75;;;4.73;63.19
80397;BME280;69721;55.894;-3.052;2023-12-20T01:49:29;100478.22;;;4.60;64.28
80397;BME280;69721;55.894;-3.052;2023-12-20T01:51:55;100489.33;;;4.55;65.15
80397;BME280;69721;55.894;-3.052;2023-12-20T01:54:20;100487.73;;;4.56;64.27
80397;BME280;69721;55.894;-3.052;2023-12-20T01:56:46;100487.28;;;4.59;64.00
80397;BME280;69721;55.894;-3.052;2023-12-20T01:59:11;100486.44;;;5.19;62.52
80397;BME280;69721;55.894;-3.052;2023-12-20T02:01:37;100490.64;;;5.13;62.39
80397;BME280;69721;55.894;-3.052;2023-12-20T02:04:02;100499.13;;;4.59;64.13
80397;BME280;69721;55.894;-3.052;2023-12-20T02:06:30;100500.45;;;4.57;64.32
80397;BME280;69721;55.894;-3.052;2023-12-20T02:08:54;100508.62;;;4.91;63.87
80397;BME280;69721;55.894;-3.052;2023-12-20T02:11:20;100511.55;;;4.49;65.27
80397;BME280;69721;55.894;-3.052;2023-12-20T02:13:45;100510.61;;;4.90;63.78
80397;BME280;69721;55.894;-3.052;2023-12-20T02:16:11;100520.57;;;4.22;64.29
80397;BME280;69721;55.894;-3.052;2023-12-20T02:18:37;100532.43;;;4.45;63.81
80397;BME280;69721;55.894;-3.052;2023-12-20T02:21:04;100532.07;;;4.66;62.30
80397;BME280;69721;55.894;-3.052;2023-12-20T02:23:27;100538.11;;;4.17;62.28
80397;BME280;69721;55.894;-3.052;2023-12-20T02:25:53;100537.71;;;4.61;61.47
80397;BME280;69721;55.894;-3.052;2023-12-20T02:28:19;100533.43;;;4.30;61.27
80397;BME280;69721;55.894;-3.052;2023-12-20T02:30:44;100549.75;;;5.47;59.65
80397;BME280;69721;55.894;-3.052;2023-12-20T02:33:12;100544.72;;;4.43;60.81
80397;BME280;69721;55.894;-3.052;2023-12-20T02:35:35;100545.63;;;4.36;61.08
80397;BME280;69721;55.894;-3.052;2023-12-20T02:38:00;100544.86;;;4.23;61.36
80397;BME280;69721;55.894;-3.052;2023-12-20T02:40:26;100541.83;;;5.14;59.08
80397;BME280;69721;55.894;-3.052;2023-12-20T02:42:52;100543.47;;;4.42;60.07
80397;BME280;69721;55.894;-3.052;2023-12-20T02:45:17;100548.35;;;5.20;58.45
80397;BME280;69721;55.894;-3.052;2023-12-20T02:47:43;100548.29;;;5.29;57.73
80397;BME280;69721;55.894;-3.052;2023-12-20T02:50:09;100533.13;;;5.00;57.17
80397;BME280;69721;55.894;-3.052;2023-12-20T02:52:34;100535.02;;;4.87;58.09
80397;BME280;69721;55.894;-3.052;2023-12-20T02:54:59;100533.28;;;5.24;58.44
80397;BME280;69721;55.894;-3.052;2023-12-20T02:57:25;100536.29;;;4.99;58.08
80397;BME280;69721;55.894;-3.052;2023-12-20T02:59:50;100539.50;;;5.13;57.13
80397;BME280;69721;55.894;-3.052;2023-12-20T03:02:16;100540.82;;;5.18;56.89
80397;BME280;69721;55.894;-3.052;2023-12-20T03:04:41;100547.84;;;5.63;56.63
80397;BME280;69721;55.894;-3.052;2023-12-20T03:07:07;100550.74;;;5.18;57.67
80397;BME280;69721;55.894;-3.052;2023-12-20T03:09:33;100557.19;;;5.32;56.47
80397;BME280;69721;55.894;-3.052;2023-12-20T03:11:58;100555.61;;;5.39;56.49
80397;BME280;69721;55.894;-3.052;2023-12-20T03:14:24;100556.79;;;5.42;56.04
80397;BME280;69721;55.894;-3.052;2023-12-20T03:16:49;100555.28;;;4.83;56.99
80397;BME280;69721;55.894;-3.052;2023-12-20T03:19:16;100571.92;;;4.86;56.86
80397;BME280;69721;55.894;-3.052;2023-12-20T03:21:41;100571.48;;;5.41;56.06
80397;BME280;69721;55.894;-3.052;2023-12-20T03:24:06;100573.04;;;4.71;57.01
80397;BME280;69721;55.894;-3.052;2023-12-20T03:26:32;100577.35;;;4.95;57.16
80397;BME280;69721;55.894;-3.052;2023-12-20T03:28:59;100586.17;;;4.98;56.44
80397;BME280;69721;55.894;-3.052;2023-12-20T03:31:23;100586.14;;;4.83;56.47
80397;BME280;69721;55.894;-3.052;2023-12-20T03:33:50;100594.05;;;5.35;55.37
80397;BME280;69721;55.894;-3.052;2023-12-20T03:36:15;100595.77;;;4.90;56.89
80397;BME280;69721;55.894;-3.052;2023-12-20T03:38:41;100575.84;;;5.28;56.12
80397;BME280;69721;55.894;-3.052;2023-12-20T03:41:07;100577.53;;;4.68;57.16
80397;BME280;69721;55.894;-3.052;2023-12-20T03:43:32;100568.42;;;4.90;57.32
80397;BME280;69721;55.894;-3.052;2023-12-20T03:45:57;100567.40;;;5.08;56.59
80397;BME280;69721;55.894;-3.052;2023-12-20T03:48:23;100555.86;;;4.79;57.63
80397;BME280;69721;55.894;-3.052;2023-12-20T03:50:49;100554.56;;;5.14;55.69
80397;BME280;69721;55.894;-3.052;2023-12-20T03:53:15;100560.72;;;4.90;56.19
80397;BME280;69721;55.894;-3.052;2023-12-20T03:55:40;100567.54;;;5.18;55.49
80397;BME280;69721;55.894;-3.052;2023-12-20T03:58:06;100556.29;;;4.80;55.99
80397;BME280;69721;55.894;-3.052;2023-12-20T04:00:31;100560.01;;;5.51;54.74
80397;BME280;69721;55.894;-3.052;2023-12-20T04:02:57;100553.06;;;4.79;55.11
80397;BME280;69721;55.894;-3.052;2023-12-20T04:05:22;100551.58;;;4.69;55.96
80397;BME280;69721;55.894;-3.052;2023-12-20T04:07:48;100550.71;;;4.33;56.41
80397;BME280;69721;55.894;-3.052;2023-12-20T04:10:13;100550.59;;;4.74;55.49
80397;BME280;69721;55.894;-3.052;2023-12-20T04:12:39;100547.32;;;4.84;55.61
80397;BME280;69721;55.894;-3.052;2023-12-20T04:15:04;100546.51;;;4.69;55.04
80397;BME280;69721;55.894;-3.052;2023-12-20T04:17:29;100543.88;;;5.09;54.11
80397;BME280;69721;55.894;-3.052;2023-12-20T04:19:55;100544.71;;;4.58;54.50
80397;BME280;69721;55.894;-3.052;2023-12-20T04:22:20;100553.73;;;4.45;54.73
80397;BME280;69721;55.894;-3.052;2023-12-20T04:24:46;100550.58;;;5.13;54.33
80397;BME280;69721;55.894;-3.052;2023-12-20T04:27:11;100539.29;;;4.61;54.67
80397;BME280;69721;55.894;-3.052;2023-12-20T04:29:36;100526.00;;;4.45;55.63
80397;BME280;69721;55.894;-3.052;2023-12-20T04:32:02;100530.71;;;4.29;55.42
80397;BME280;69721;55.894;-3.052;2023-12-20T04:34:27;100532.35;;;4.76;54.86
80397;BME280;69721;55.894;-3.052;2023-12-20T04:36:53;100539.66;;;5.20;53.38
80397;BME280;69721;55.894;-3.052;2023-12-20T04:39:19;100533.23;;;5.04;53.89
80397;BME280;69721;55.894;-3.052;2023-12-20T04:41:44;100532.89;;;5.29;52.67
80397;BME280;69721;55.894;-3.052;2023-12-20T04:44:10;100528.26;;;5.87;51.99
80397;BME280;69721;55.894;-3.052;2023-12-20T04:46:35;100517.51;;;5.75;51.96
80397;BME280;69721;55.894;-3.052;2023-12-20T04:49:01;100515.48;;;5.75;51.76
80397;BME280;69721;55.894;-3.052;2023-12-20T04:51:26;100526.94;;;4.85;52.84
80397;BME280;69721;55.894;-3.052;2023-12-20T04:53:52;100522.74;;;5.90;51.46
80397;BME280;69721;55.894;-3.052;2023-12-20T04:56:17;100517.43;;;5.85;50.98
80397;BME280;69721;55.894;-3.052;2023-12-20T04:58:43;100520.42;;;5.52;51.36
80397;BME280;69721;55.894;-3.052;2023-12-20T05:01:09;100526.24;;;4.99;52.75
80397;BME280;69721;55.894;-3.052;2023-12-20T05:03:34;100534.60;;;5.18;52.36
80397;BME280;69721;55.894;-3.052;2023-12-20T05:05:59;100531.02;;;5.37;52.11
80397;BME280;69721;55.894;-3.052;2023-12-20T05:08:25;100523.54;;;5.51;52.14
80397;BME280;69721;55.894;-3.052;2023-12-20T05:10:51;100526.02;;;5.26;51.99
80397;BME280;69721;55.894;-3.052;2023-12-20T05:13:16;100519.23;;;5.97;51.30
80397;BME280;69721;55.894;-3.052;2023-12-20T05:15:41;100529.25;;;5.33;52.62
80397;BME280;69721;55.894;-3.052;2023-12-20T05:18:08;100532.80;;;5.41;53.72
80397;BME280;69721;55.894;-3.052;2023-12-20T05:20:33;100530.73;;;4.74;54.38
80397;BME280;69721;55.894;-3.052;2023-12-20T05:22:58;100531.76;;;5.08;54.32
80397;BME280;69721;55.894;-3.052;2023-12-20T05:25:24;100544.18;;;3.98;56.47
80397;BME280;69721;55.894;-3.052;2023-12-20T05:27:50;100535.91;;;5.16;54.00
80397;BME280;69721;55.894;-3.052;2023-12-20T05:30:15;100545.71;;;4.42;54.99
80397;BME280;69721;55.894;-3.052;2023-12-20T05:32:41;100550.09;;;5.55;52.85
80397;BME280;69721;55.894;-3.052;2023-12-20T05:35:07;100555.21;;;5.48;51.74
80397;BME280;69721;55.894;-3.052;2023-12-20T05:37:33;100561.26;;;5.19;53.57
80397;BME280;69721;55.894;-3.052;2023-12-20T05:39:58;100561.15;;;5.67;52.85
80397;BME280;69721;55.894;-3.052;2023-12-20T05:42:24;100548.70;;;5.71;52.03
80397;BME280;69721;55.894;-3.052;2023-12-20T05:44:49;100548.33;;;5.56;52.98
80397;BME280;69721;55.894;-3.052;2023-12-20T05:47:14;100548.92;;;4.65;55.88
80397;BME280;69721;55.894;-3.052;2023-12-20T05:49:40;100560.49;;;5.09;55.40
80397;BME280;69721;55.894;-3.052;2023-12-20T05:52:05;100555.68;;;5.82;53.70
80397;BME280;69721;55.894;-3.052;2023-12-20T05:54:31;100549.36;;;6.02;53.21
80397;BME280;69721;55.894;-3.052;2023-12-20T05:56:56;100547.77;;;5.78;53.05
80397;BME280;69721;55.894;-3.052;2023-12-20T05:59:22;100553.95;;;6.07;53.80
80397;BME280;69721;55.894;-3.052;2023-12-20T06:01:47;100560.93;;;6.23;52.38
80397;BME280;69721;55.894;-3.052;2023-12-20T06:04:13;100552.79;;;6.09;53.05
80397;BME280;69721;55.894;-3.052;2023-12-20T06:06:41;100552.55;;;6.36;52.63
80397;BME280;69721;55.894;-3.052;2023-12-20T06:09:03;100545.42;;;5.16;55.73
80397;BME280;69721;55.894;-3.052;2023-12-20T06:11:29;100549.80;;;5.71;53.78
80397;BME280;69721;55.894;-3.052;2023-12-20T06:13:54;100548.94;;;6.23;52.64
80397;BME280;69721;55.894;-3.052;2023-12-20T06:16:20;100553.38;;;5.89;52.93
80397;BME280;69721;55.894;-3.052;2023-12-20T06:18:46;100551.82;;;5.42;54.42
80397;BME280;69721;55.894;-3.052;2023-12-20T06:21:11;100553.70;;;6.23;52.39
80397;BME280;69721;55.894;-3.052;2023-12-20T06:23:37;100547.72;;;4.92;55.42
80397;BME280;69721;55.894;-3.052;2023-12-20T06:26:03;100546.27;;;6.21;53.44
80397;BME280;69721;55.894;-3.052;2023-12-20T06:28:28;100535.62;;;6.31;52.12
80397;BME280;69721;55.894;-3.052;2023-12-20T06:30:53;100535.89;;;6.08;51.82
80397;BME280;69721;55.894;-3.052;2023-12-20T06:33:20;100530.52;;;5.96;53.63
80397;BME280;69721;55.894;-3.052;2023-12-20T06:35:44;100537.52;;;5.31;55.95
80397;BME280;69721;55.894;-3.052;2023-12-20T06:38:10;100534.17;;;5.90;54.89
80397;BME280;69721;55.894;-3.052;2023-12-20T06:40:35;100521.03;;;5.92;55.29
80397;BME280;69721;55.894;-3.052;2023-12-20T06:43:02;100528.15;;;5.87;54.54
80397;BME280;69721;55.894;-3.052;2023-12-20T06:45:28;100541.79;;;5.37;56.41
80397;BME280;69721;55.894;-3.052;2023-12-20T06:47:54;100547.04;;;5.29;56.57
80397;BME280;69721;55.894;-3.052;2023-12-20T06:50:19;100548.29;;;4.23;59.59
80397;BME280;69721;55.894;-3.052;2023-12-20T06:52:45;100549.31;;;5.85;55.96
80397;BME280;69721;55.894;-3.052;2023-12-20T06:55:11;100541.59;;;6.62;54.26
80397;BME280;69721;55.894;-3.052;2023-12-20T06:57:36;100530.17;;;6.06;54.90
80397;BME280;69721;55.894;-3.052;2023-12-20T07:00:02;100521.24;;;5.76;55.60
80397;BME280;69721;55.894;-3.052;2023-12-20T07:02:27;100519.71;;;6.06;54.63
80397;BME280;69721;55.894;-3.052;2023-12-20T07:04:52;100514.08;;;6.59;54.32
80397;BME280;69721;55.894;-3.052;2023-12-20T07:07:18;100519.89;;;5.47;56.15
80397;BME280;69721;55.894;-3.052;2023-12-20T07:09:43;100519.55;;;6.07;55.45
80397;BME280;69721;55.894;-3.052;2023-12-20T07:12:09;100515.87;;;5.72;55.85
80397;BME280;69721;55.894;-3.052;2023-12-20T07:14:35;100515.91;;;5.52;56.30
80397;BME280;69721;55.894;-3.052;2023-12-20T07:17:00;100508.35;;;5.44;57.71
80397;BME280;69721;55.894;-3.052;2023-12-20T07:19:26;100508.33;;;5.45;58.18
80397;BME280;69721;55.894;-3.052;2023-12-20T07:21:52;100486.95;;;5.51;57.64
80397;BME280;69721;55.894;-3.052;2023-12-20T07:24:18;100490.90;;;5.65;57.78
80397;BME280;69721;55.894;-3.052;2023-12-20T07:26:43;100476.74;;;5.38;58.74
80397;BME280;69721;55.894;-3.052;2023-12-20T07:29:09;100473.77;;;6.05;57.54
80397;BME280;69721;55.894;-3.052;2023-12-20T07:31:35;100461.29;;;5.44;58.08
80397;BME280;69721;55.894;-3.052;2023-12-20T07:34:01;100469.49;;;5.70;57.42
80397;BME280;69721;55.894;-3.052;2023-12-20T07:36:27;100458.71;;;6.00;57.66
80397;BME280;69721;55.894;-3.052;2023-12-20T07:38:53;100461.79;;;5.81;57.85
80397;BME280;69721;55.894;-3.052;2023-12-20T07:41:19;100452.56;;;5.40;59.44
80397;BME280;69721;55.894;-3.052;2023-12-20T07:43:44;100462.47;;;5.38;59.87
80397;BME280;69721;55.894;-3.052;2023-12-20T07:46:10;100450.17;;;5.71;59.65
80397;BME280;69721;55.894;-3.052;2023-12-20T07:48:35;100457.39;;;5.51;60.08
80397;BME280;69721;55.894;-3.052;2023-12-20T07:51:00;100444.54;;;5.76;59.39
80397;BME280;69721;55.894;-3.052;2023-12-20T07:53:26;100440.63;;;5.56;59.91
80397;BME280;69721;55.894;-3.052;2023-12-20T07:55:52;100434.69;;;5.66;60.15
80397;BME280;69721;55.894;-3.052;2023-12-20T07:58:18;100434.75;;;5.83;60.14
80397;BME280;69721;55.894;-3.052;2023-12-20T08:00:43;100435.04;;;6.20;59.14
80397;BME280;69721;55.894;-3.052;2023-12-20T08:03:09;100429.13;;;6.11;58.54
80397;BME280;69721;55.894;-3.052;2023-12-20T08:05:34;100428.72;;;6.08;59.72
80397;BME280;69721;55.894;-3.052;2023-12-20T08:08:00;100433.07;;;5.24;61.72
80397;BME280;69721;55.894;-3.052;2023-12-20T08:10:25;100435.16;;;5.62;60.99
80397;BME280;69721;55.894;-3.052;2023-12-20T08:12:51;100427.90;;;7.18;57.53
80397;BME280;69721;55.894;-3.052;2023-12-20T08:15:17;100437.41;;;5.72;59.88
80397;BME280;69721;55.894;-3.052;2023-12-20T08:17:42;100433.63;;;5.55;60.95
80397;BME280;69721;55.894;-3.052;2023-12-20T08:20:08;100436.99;;;6.35;60.91
80397;BME280;69721;55.894;-3.052;2023-12-20T08:22:33;100433.64;;;6.29;59.78
80397;BME280;69721;55.894;-3.052;2023-12-20T08:24:58;100432.40;;;6.80;58.87
80397;BME280;69721;55.894;-3.052;2023-12-20T08:27:24;100429.64;;;7.04;58.81
80397;BME280;69721;55.894;-3.052;2023-12-20T08:29:49;100420.79;;;6.32;60.99
80397;BME280;69721;55.894;-3.052;2023-12-20T08:32:15;100413.74;;;5.96;61.40
80397;BME280;69721;55.894;-3.052;2023-12-20T08:34:40;100406.63;;;6.16;61.21
80397;BME280;69721;55.894;-3.052;2023-12-20T08:37:06;100401.63;;;6.18;61.48
80397;BME280;69721;55.894;-3.052;2023-12-20T08:39:32;100402.08;;;6.70;61.24
80397;BME280;69721;55.894;-3.052;2023-12-20T08:41:57;100407.89;;;6.15;62.19
80397;BME280;69721;55.894;-3.052;2023-12-20T08:44:22;100400.71;;;6.41;61.30
80397;BME280;69721;55.894;-3.052;2023-12-20T08:46:48;100404.41;;;6.57;62.04
80397;BME280;69721;55.894;-3.052;2023-12-20T08:49:13;100387.08;;;5.97;63.42
80397;BME280;69721;55.894;-3.052;2023-12-20T08:51:40;100371.16;;;7.02;59.83
80397;BME280;69721;55.894;-3.052;2023-12-20T08:54:05;100363.15;;;7.86;57.44
80397;BME280;69721;55.894;-3.052;2023-12-20T08:56:31;100365.82;;;6.60;60.95
80397;BME280;69721;55.894;-3.052;2023-12-20T08:58:56;100347.64;;;7.06;60.46
80397;BME280;69721;55.894;-3.052;2023-12-20T09:01:22;100347.40;;;6.40;61.64
80397;BME280;69721;55.894;-3.052;2023-12-20T09:03:47;100342.23;;;6.39;61.46
80397;BME280;69721;55.894;-3.052;2023-12-20T09:06:13;100333.35;;;7.24;59.57
80397;BME280;69721;55.894;-3.052;2023-12-20T09:08:39;100339.81;;;7.05;60.02
80397;BME280;69721;55.894;-3.052;2023-12-20T09:11:06;100330.94;;;7.09;61.24
80397;BME280;69721;55.894;-3.052;2023-12-20T09:13:31;100327.19;;;7.15;61.02
80397;BME280;69721;55.894;-3.052;2023-12-20T09:15:57;100321.56;;;7.18;61.30
80397;BME280;69721;55.894;-3.052;2023-12-20T09:18:22;100307.21;;;7.46;60.66
80397;BME280;69721;55.894;-3.052;2023-12-20T09:20:48;100306.53;;;8.25;58.39
80397;BME280;69721;55.894;-3.052;2023-12-20T09:23:13;100290.15;;;7.61;59.34
80397;BME280;69721;55.894;-3.052;2023-12-20T09:25:39;100273.04;;;8.27;57.29
80397;BME280;69721;55.894;-3.052;2023-12-20T09:28:05;100281.68;;;7.42;59.79
80397;BME280;69721;55.894;-3.052;2023-12-20T09:30:30;100276.39;;;8.23;58.22
80397;BME280;69721;55.894;-3.052;2023-12-20T09:32:55;100250.49;;;8.99;56.97
80397;BME280;69721;55.894;-3.052;2023-12-20T09:35:21;100266.64;;;7.63;60.03
80397;BME280;69721;55.894;-3.052;2023-12-20T09:37:46;100258.19;;;8.08;60.36
80397;BME280;69721;55.894;-3.052;2023-12-20T09:40:13;100252.87;;;6.49;65.13
80397;BME280;69721;55.894;-3.052;2023-12-20T09:42:39;100238.14;;;7.12;63.55
80397;BME280;69721;55.894;-3.052;2023-12-20T09:45:04;100231.92;;;7.28;62.92
80397;BME280;69721;55.894;-3.052;2023-12-20T09:47:28;100223.65;;;7.49;62.14
80397;BME280;69721;55.894;-3.052;2023-12-20T09:49:54;100228.26;;;7.70;62.79
80397;BME280;69721;55.894;-3.052;2023-12-20T09:52:20;100229.51;;;7.32;63.90
80397;BME280;69721;55.894;-3.052;2023-12-20T09:54:45;100221.84;;;7.17;65.13
80397;BME280;69721;55.894;-3.052;2023-12-20T09:57:10;100212.31;;;7.46;64.53
80397;BME280;69721;55.894;-3.052;2023-12-20T09:59:35;100204.20;;;6.87;66.89
80397;BME280;69721;55.894;-3.052;2023-12-20T10:02:02;100189.76;;;7.08;66.15
80397;BME280;69721;55.894;-3.052;2023-12-20T10:04:26;100183.67;;;7.33;65.73
80397;BME280;69721;55.894;-3.052;2023-12-20T10:06:52;100189.14;;;7.41;65.33
80397;BME280;69721;55.894;-3.052;2023-12-20T10:09:18;100174.35;;;8.35;63.80
80397;BME280;69721;55.894;-3.052;2023-12-20T10:11:43;100159.13;;;8.52;61.83
80397;BME280;69721;55.894;-3.052;2023-12-20T10:14:11;100148.46;;;7.98;63.77
80397;BME280;69721;55.894;-3.052;2023-12-20T10:16:35;100135.26;;;7.70;65.42
80397;BME280;69721;55.894;-3.052;2023-12-20T10:19:00;100106.37;;;7.65;65.69
80397;BME280;69721;55.894;-3.052;2023-12-20T10:21:26;100105.39;;;7.17;66.62
80397;BME280;69721;55.894;-3.052;2023-12-20T10:23:51;100110.42;;;8.04;64.97
80397;BME280;69721;55.894;-3.052;2023-12-20T10:26:20;100096.89;;;7.71;65.98
80397;BME280;69721;55.894;-3.052;2023-12-20T10:28:42;100093.30;;;7.84;65.80
80397;BME280;69721;55.894;-3.052;2023-12-20T10:31:07;100101.06;;;7.68;65.82
80397;BME280;69721;55.894;-3.052;2023-12-20T10:33:33;100099.41;;;8.37;64.74
80397;BME280;69721;55.894;-3.052;2023-12-20T10:35:58;100109.66;;;7.29;66.55
80397;BME280;69721;55.894;-3.052;2023-12-20T10:38:24;100107.23;;;8.24;63.96
80397;BME280;69721;55.894;-3.052;2023-12-20T10:40:56;100113.98;;;8.59;63.12
80397;BME280;69721;55.894;-3.052;2023-12-20T10:43:15;100078.48;;;7.84;65.39
80397;BME280;69721;55.894;-3.052;2023-12-20T10:45:42;100085.12;;;8.19;65.53
80397;BME280;69721;55.894;-3.052;2023-12-20T10:48:07;100095.29;;;7.24;67.75
80397;BME280;69721;55.894;-3.052;2023-12-20T10:50:32;100086.40;;;7.06;68.98
80397;BME280;69721;55.894;-3.052;2023-12-20T10:52:57;100073.50;;;6.67;70.10
80397;BME280;69721;55.894;-3.052;2023-12-20T10:55:23;100078.14;;;7.67;68.17
80397;BME280;69721;55.894;-3.052;2023-12-20T10:57:49;100061.37;;;7.19;69.87
80397;BME280;69721;55.894;-3.052;2023-12-20T11:00:15;100059.98;;;8.10;66.48
80397;BME280;69721;55.894;-3.052;2023-12-20T11:02:40;100067.39;;;8.12;66.31
80397;BME280;69721;55.894;-3.052;2023-12-20T11:05:22;100063.11;;;7.55;67.49
80397;BME280;69721;55.894;-3.052;2023-12-20T11:07:33;100058.19;;;8.28;65.28
80397;BME280;69721;55.894;-3.052;2023-12-20T11:10:00;100063.03;;;7.41;66.87
80397;BME280;69721;55.894;-3.052;2023-12-20T11:12:26;100060.17;;;7.93;67.10
80397;BME280;69721;55.894;-3.052;2023-12-20T11:14:48;100061.21;;;8.29;65.62
80397;BME280;69721;55.894;-3.052;2023-12-20T11:17:12;100054.87;;;8.04;67.83
80397;BME280;69721;55.894;-3.052;2023-12-20T11:19:38;100029.79;;;8.48;66.35
80397;BME280;69721;55.894;-3.052;2023-12-20T11:22:04;100029.28;;;8.65;65.49
80397;BME280;69721;55.894;-3.052;2023-12-20T11:24:28;100008.81;;;7.59;69.66
80397;BME280;69721;55.894;-3.052;2023-12-20T11:26:56;100003.14;;;8.36;66.63
80397;BME280;69721;55.894;-3.052;2023-12-20T11:29:29;99990.71;;;7.97;67.11
80397;BME280;69721;55.894;-3.052;2023-12-20T11:31:45;99987.19;;;7.59;68.91
80397;BME280;69721;55.894;-3.052;2023-12-20T11:34:13;99983.77;;;8.20;66.99
80397;BME280;69721;55.894;-3.052;2023-12-20T11:36:36;99978.54;;;8.15;67.86
80397;BME280;69721;55.894;-3.052;2023-12-20T11:39:01;99970.89;;;7.55;70.12
80397;BME280;69721;55.894;-3.052;2023-12-20T11:41:27;99964.62;;;7.67;69.33
80397;BME280;69721;55.894;-3.052;2023-12-20T11:43:53;99964.58;;;7.61;69.55
80397;BME280;69721;55.894;-3.052;2023-12-20T11:46:18;99954.20;;;7.30;70.68
80397;BME280;69721;55.894;-3.052;2023-12-20T11:48:44;99945.82;;;8.15;69.55
80397;BME280;69721;55.894;-3.052;2023-12-20T11:51:10;99925.44;;;8.06;68.77
80397;BME280;69721;55.894;-3.052;2023-12-20T11:53:35;99929.95;;;8.08;68.53
80397;BME280;69721;55.894;-3.052;2023-12-20T11:56:00;99935.34;;;7.89;69.62
80397;BME280;69721;55.894;-3.052;2023-12-20T11:58:26;99924.22;;;8.07;69.52
80397;BME280;69721;55.894;-3.052;2023-12-20T12:00:51;99923.41;;;8.37;67.70
80397;BME280;69721;55.894;-3.052;2023-12-20T12:03:17;99914.85;;;8.20;68.94
80397;BME280;69721;55.894;-3.052;2023-12-20T12:05:43;99906.18;;;8.03;68.31
80397;BME280;69721;55.894;-3.052;2023-12-20T12:08:09;99935.78;;;8.21;69.10
80397;BME280;69721;55.894;-3.052;2023-12-20T12:10:34;99912.75;;;8.18;69.62
80397;BME280;69721;55.894;-3.052;2023-12-20T12:13:00;99910.66;;;8.92;65.32
80397;BME280;69721;55.894;-3.052;2023-12-20T12:15:25;99924.42;;;7.86;68.56
80397;BME280;69721;55.894;-3.052;2023-12-20T12:17:54;99925.77;;;8.38;68.50
80397;BME280;69721;55.894;-3.052;2023-12-20T12:20:20;99926.74;;;7.96;68.31
80397;BME280;69721;55.894;-3.052;2023-12-20T12:22:41;99915.89;;;8.22;67.95
80397;BME280;69721;55.894;-3.052;2023-12-20T12:25:11;99912.08;;;8.23;67.72
80397;BME280;69721;55.894;-3.052;2023-12-20T12:27:33;99903.54;;;8.29;67.60
80397;BME280;69721;55.894;-3.052;2023-12-20T12:30:01;99894.59;;;8.29;67.32
80397;BME280;69721;55.894;-3.052;2023-12-20T12:32:23;99910.76;;;8.32;66.17
80397;BME280;69721;55.894;-3.052;2023-12-20T12:34:48;99895.94;;;9.19;65.01
80397;BME280;69721;55.894;-3.052;2023-12-20T12:37:14;99887.66;;;8.97;64.50
80397;BME280;69721;55.894;-3.052;2023-12-20T12:39:40;99883.10;;;8.38;66.56